Time;durP1;ratioP1;P1;durP2;ratioP2;P2;SDS_P1;SDS_P2;PMS_P1;PMS_P2;Temp;Humidity;BMP_temperature;BMP_pressure;BME280_temperature;BME280_humidity;BME280_pressure;Samples;Min_cycle;Max_cycle;Signal;HPM_P1;HPM_P2
2021/09/18 00:00:13;;;;;;;80.72;12.02;;;;;;;;;;5021051;28;20022;-41
2021/09/18 00:02:40;;;;;;;75.97;11.18;;;;;;;;;;5020324;28;20068;-41
2021/09/18 00:05:07;;;;;;;81.88;12.85;;;;;;;;;;5021188;28;20076;-41
2021/09/18 00:07:34;;;;;;;82.90;12.07;;;;;;;;;;5018766;28;20091;-41
2021/09/18 00:10:01;;;;;;;83.25;12.63;;;;;;;;;;5015061;28;20037;-40
2021/09/18 00:12:28;;;;;;;80.68;12.93;;;;;;;;;;5012645;28;20504;-40
2021/09/18 00:14:55;;;;;;;79.57;10.82;;;;;;;;;;5024515;28;20698;-42
2021/09/18 00:17:22;;;;;;;77.00;12.55;;;;;;;;;;5022803;28;20026;-41
2021/09/18 00:19:49;;;;;;;69.80;11.63;;;;;;;;;;5022524;28;20469;-42
2021/09/18 00:22:16;;;;;;;59.63;10.52;;;;;;;;;;5022882;28;20029;-41
2021/09/18 00:24:43;;;;;;;71.43;10.93;;;;;;;;;;5021381;28;20017;-41
2021/09/18 00:27:10;;;;;;;61.00;11.45;;;;;;;;;;5023315;28;20028;-41
2021/09/18 00:29:37;;;;;;;47.72;10.32;;;;;;;;;;5018566;28;20030;-42
2021/09/18 00:32:04;;;;;;;70.35;11.98;;;;;;;;;;5014900;28;20026;-41
2021/09/18 00:34:31;;;;;;;116.53;13.80;;;;;;;;;;5021625;28;20033;-41
2021/09/18 00:36:58;;;;;;;255.35;23.33;;;;;;;;;;5015408;28;20022;-42
2021/09/18 00:39:25;;;;;;;160.55;16.80;;;;;;;;;;5023025;28;20117;-41
2021/09/18 00:41:52;;;;;;;100.57;13.35;;;;;;;;;;5018550;28;20030;-39
2021/09/18 00:44:20;;;;;;;103.75;12.50;;;;;;;;;;5017203;28;20029;-40
2021/09/18 00:46:48;;;;;;;84.28;13.68;;;;;;;;;;5021252;28;20105;-40
2021/09/18 00:49:15;;;;;;;83.25;11.93;;;;;;;;;;5017674;28;20037;-38
2021/09/18 00:51:42;;;;;;;91.82;11.98;;;;;;;;;;5018976;28;20022;-40
2021/09/18 00:54:09;;;;;;;78.25;12.05;;;;;;;;;;5020243;28;20022;-39
2021/09/18 00:56:36;;;;;;;78.50;13.15;;;;;;;;;;5016354;28;20025;-44
2021/09/18 00:59:03;;;;;;;98.20;14.32;;;;;;;;;;5014574;28;20625;-38
2021/09/18 01:01:30;;;;;;;96.05;16.30;;;;;;;;;;5019333;28;20485;-42
2021/09/18 01:03:59;;;;;;;148.40;28.55;;;;;;;;;;5017661;28;20042;-41
2021/09/18 01:06:28;;;;;;;175.48;32.42;;;;;;;;;;5013848;28;20030;-41
2021/09/18 01:08:55;;;;;;;217.75;41.50;;;;;;;;;;5017035;28;20041;-41
2021/09/18 01:11:23;;;;;;;237.35;47.58;;;;;;;;;;5015537;28;20047;-41
2021/09/18 01:13:50;;;;;;;236.65;48.40;;;;;;;;;;5016391;28;20022;-41
2021/09/18 01:16:19;;;;;;;266.27;55.03;;;;;;;;;;5020860;28;20386;-40
2021/09/18 01:18:46;;;;;;;244.20;52.08;;;;;;;;;;5018697;28;20029;-41
2021/09/18 01:21:13;;;;;;;253.75;52.92;;;;;;;;;;5014231;28;20030;-40
2021/09/18 01:23:41;;;;;;;242.13;50.05;;;;;;;;;;5018956;28;20382;-40
2021/09/18 01:26:08;;;;;;;244.38;50.78;;;;;;;;;;5017152;28;20033;-40
2021/09/18 01:28:38;;;;;;;229.00;49.55;;;;;;;;;;5015285;28;20061;-40
2021/09/18 01:31:06;;;;;;;241.48;49.75;;;;;;;;;;5017142;28;20449;-41
2021/09/18 01:33:33;;;;;;;201.25;46.33;;;;;;;;;;5022734;28;20022;-41
2021/09/18 01:36:00;;;;;;;204.45;45.15;;;;;;;;;;5014373;28;20498;-40
2021/09/18 01:38:27;;;;;;;211.52;45.22;;;;;;;;;;5020819;28;20029;-41
2021/09/18 01:40:54;;;;;;;209.10;44.05;;;;;;;;;;5013047;28;20108;-41
2021/09/18 01:43:21;;;;;;;207.88;42.78;;;;;;;;;;5015481;28;20530;-39
2021/09/18 01:45:49;;;;;;;188.50;39.78;;;;;;;;;;5013200;28;20021;-41
2021/09/18 01:48:17;;;;;;;189.65;39.90;;;;;;;;;;5021302;28;20030;-42
2021/09/18 01:50:52;;;;;;;175.93;39.17;;;;;;;;;;5019359;28;20060;-41
2021/09/18 01:53:20;;;;;;;181.20;37.30;;;;;;;;;;5017789;28;20109;-41
2021/09/18 01:55:47;;;;;;;169.10;36.08;;;;;;;;;;5020483;28;20014;-38
2021/09/18 01:58:15;;;;;;;141.60;32.75;;;;;;;;;;5019379;28;20028;-41
2021/09/18 02:00:43;;;;;;;154.70;34.70;;;;;;;;;;5018696;28;20014;-40
2021/09/18 02:03:10;;;;;;;154.43;33.83;;;;;;;;;;5018963;28;20061;-43
2021/09/18 02:05:37;;;;;;;135.57;30.88;;;;;;;;;;5013387;28;20029;-40
2021/09/18 02:08:04;;;;;;;139.07;31.33;;;;;;;;;;5015753;28;20583;-41
2021/09/18 02:10:32;;;;;;;146.52;31.85;;;;;;;;;;5020725;28;20042;-39
2021/09/18 02:12:59;;;;;;;138.10;31.75;;;;;;;;;;5021832;28;20021;-40
2021/09/18 02:15:26;;;;;;;126.05;29.20;;;;;;;;;;5011650;28;20382;-40
2021/09/18 02:17:54;;;;;;;129.10;30.65;;;;;;;;;;5021632;28;20018;-40
2021/09/18 02:20:22;;;;;;;122.70;27.92;;;;;;;;;;5012901;28;20029;-39
2021/09/18 02:22:49;;;;;;;132.07;27.67;;;;;;;;;;5012294;28;20025;-41
2021/09/18 02:25:17;;;;;;;119.03;27.60;;;;;;;;;;5012347;28;20022;-41
2021/09/18 02:27:44;;;;;;;123.03;27.77;;;;;;;;;;5017709;28;20068;-41
2021/09/18 02:30:13;;;;;;;119.78;26.55;;;;;;;;;;5014439;28;20045;-40
2021/09/18 02:32:40;;;;;;;123.05;27.95;;;;;;;;;;5015981;28;20025;-39
2021/09/18 02:35:08;;;;;;;125.45;27.75;;;;;;;;;;5019273;28;20072;-39
2021/09/18 02:37:36;;;;;;;110.60;27.40;;;;;;;;;;5016749;28;20402;-40
2021/09/18 02:40:04;;;;;;;112.10;25.90;;;;;;;;;;5017251;28;20069;-39
2021/09/18 02:42:34;;;;;;;103.03;24.80;;;;;;;;;;5020378;28;20057;-38
2021/09/18 02:45:01;;;;;;;98.72;25.25;;;;;;;;;;5019399;28;20053;-38
2021/09/18 02:47:28;;;;;;;111.32;26.00;;;;;;;;;;5019234;28;20444;-40
2021/09/18 02:49:55;;;;;;;108.38;24.63;;;;;;;;;;5015339;28;20033;-40
2021/09/18 02:52:22;;;;;;;98.60;23.23;;;;;;;;;;5018934;28;20099;-39
2021/09/18 02:54:49;;;;;;;107.03;24.70;;;;;;;;;;5014103;28;20367;-39
2021/09/18 02:57:16;;;;;;;98.10;24.95;;;;;;;;;;5016174;28;20018;-37
2021/09/18 02:59:43;;;;;;;98.07;25.90;;;;;;;;;;5017517;28;20033;-40
2021/09/18 03:02:10;;;;;;;101.65;23.30;;;;;;;;;;5017218;28;20057;-40
2021/09/18 03:04:37;;;;;;;90.28;24.17;;;;;;;;;;5017986;28;20029;-40
2021/09/18 03:07:04;;;;;;;87.68;22.45;;;;;;;;;;5016142;28;20026;-39
2021/09/18 03:09:31;;;;;;;90.45;22.50;;;;;;;;;;5020030;28;20079;-39
2021/09/18 03:11:58;;;;;;;97.75;21.58;;;;;;;;;;5015104;28;20021;-38
2021/09/18 03:14:25;;;;;;;79.03;21.23;;;;;;;;;;5022086;28;20037;-39
2021/09/18 03:16:52;;;;;;;107.75;22.10;;;;;;;;;;5016978;28;20025;-41
2021/09/18 03:19:19;;;;;;;92.40;22.75;;;;;;;;;;5012494;28;20430;-41
2021/09/18 03:21:46;;;;;;;80.93;21.13;;;;;;;;;;5017398;28;20045;-42
2021/09/18 03:24:13;;;;;;;81.90;20.63;;;;;;;;;;5016591;28;20433;-42
2021/09/18 03:26:43;;;;;;;80.05;20.75;;;;;;;;;;5029509;28;20021;-43
2021/09/18 03:29:10;;;;;;;80.68;20.73;;;;;;;;;;5029265;28;20037;-42
2021/09/18 03:31:37;;;;;;;76.55;20.40;;;;;;;;;;5023249;28;20025;-40
2021/09/18 03:34:04;;;;;;;76.22;20.77;;;;;;;;;;5031311;28;20420;-42
2021/09/18 03:36:32;;;;;;;73.50;18.83;;;;;;;;;;5031201;28;20028;-41
2021/09/18 03:38:59;;;;;;;72.05;18.77;;;;;;;;;;5033806;28;20029;-44
2021/09/18 03:41:26;;;;;;;71.60;20.60;;;;;;;;;;5034644;28;20045;-42
2021/09/18 03:43:53;;;;;;;82.20;20.70;;;;;;;;;;5034669;28;20108;-42
2021/09/18 03:46:20;;;;;;;77.07;20.80;;;;;;;;;;5034867;28;20373;-45
2021/09/18 03:48:47;;;;;;;78.63;20.33;;;;;;;;;;5034956;28;20381;-44
2021/09/18 03:53:50;;;;;;;73.22;20.52;;;;;;;;;;5068691;22;20053;-44
2021/09/18 03:56:17;;;;;;;68.47;19.58;;;;;;;;;;5034661;28;20032;-46
2021/09/18 03:58:44;;;;;;;84.60;21.15;;;;;;;;;;5034814;28;20445;-46
2021/09/18 04:01:11;;;;;;;68.90;19.17;;;;;;;;;;5034888;28;20017;-46
2021/09/18 04:03:38;;;;;;;69.57;18.83;;;;;;;;;;5034867;28;20021;-46
2021/09/18 04:06:05;;;;;;;76.43;19.48;;;;;;;;;;5034722;28;20032;-46
2021/09/18 04:08:32;;;;;;;69.38;19.05;;;;;;;;;;5034590;28;20481;-46
2021/09/18 04:10:59;;;;;;;61.80;18.80;;;;;;;;;;5034780;28;20624;-43
2021/09/18 04:13:26;;;;;;;79.53;19.25;;;;;;;;;;5034582;28;20617;-44
2021/09/18 04:15:53;;;;;;;76.40;18.13;;;;;;;;;;5034558;28;20053;-47
2021/09/18 04:18:20;;;;;;;67.32;18.15;;;;;;;;;;5034664;28;20040;-47
2021/09/18 04:20:47;;;;;;;55.60;16.73;;;;;;;;;;5032864;28;20033;-46
2021/09/18 04:23:14;;;;;;;70.38;17.45;;;;;;;;;;5034486;28;20412;-47
2021/09/18 04:25:41;;;;;;;69.18;17.58;;;;;;;;;;5034577;28;20030;-47
2021/09/18 04:28:09;;;;;;;70.65;18.08;;;;;;;;;;5034287;28;20095;-46
2021/09/18 04:30:36;;;;;;;63.38;17.00;;;;;;;;;;5033099;28;20355;-46
2021/09/18 04:33:03;;;;;;;56.97;15.25;;;;;;;;;;5034484;28;20032;-46
2021/09/18 04:35:30;;;;;;;62.47;16.48;;;;;;;;;;5034111;28;20092;-45
2021/09/18 04:37:57;;;;;;;61.42;17.10;;;;;;;;;;5034112;28;20087;-45
2021/09/18 04:40:24;;;;;;;53.47;16.50;;;;;;;;;;5034395;28;20473;-45
2021/09/18 04:42:51;;;;;;;62.88;16.13;;;;;;;;;;5034017;28;20109;-46
2021/09/18 04:45:18;;;;;;;73.20;16.45;;;;;;;;;;5034229;28;20354;-46
2021/09/18 04:47:45;;;;;;;55.58;15.88;;;;;;;;;;5033951;28;20489;-45
2021/09/18 04:50:12;;;;;;;65.20;18.17;;;;;;;;;;5033769;28;20095;-45
2021/09/18 04:52:39;;;;;;;61.17;15.93;;;;;;;;;;5033341;28;20038;-44
2021/09/18 04:55:06;;;;;;;62.50;16.63;;;;;;;;;;5033932;28;20059;-44
2021/09/18 04:57:34;;;;;;;63.60;16.15;;;;;;;;;;5033568;28;20098;-44
2021/09/18 05:00:01;;;;;;;55.10;14.93;;;;;;;;;;5033666;28;20021;-47
2021/09/18 05:02:28;;;;;;;49.70;15.60;;;;;;;;;;5032055;28;20477;-43
2021/09/18 05:04:55;;;;;;;52.40;15.52;;;;;;;;;;5033556;28;20075;-46
2021/09/18 05:07:22;;;;;;;47.13;15.20;;;;;;;;;;5033357;28;20096;-41
2021/09/18 05:09:49;;;;;;;54.00;15.50;;;;;;;;;;5033508;28;20026;-45
2021/09/18 05:12:16;;;;;;;55.83;15.32;;;;;;;;;;5033426;28;20052;-47
2021/09/18 05:14:43;;;;;;;54.28;14.70;;;;;;;;;;5033345;28;20075;-46
2021/09/18 05:17:10;;;;;;;47.25;14.23;;;;;;;;;;5033435;28;20512;-44
2021/09/18 05:19:37;;;;;;;58.90;15.10;;;;;;;;;;5033456;28;20144;-44
2021/09/18 05:22:04;;;;;;;48.55;15.05;;;;;;;;;;5033168;28;20026;-43
2021/09/18 05:24:31;;;;;;;54.42;13.68;;;;;;;;;;5032493;28;20018;-46
2021/09/18 05:26:58;;;;;;;47.67;13.55;;;;;;;;;;5032798;28;20040;-44
2021/09/18 05:29:25;;;;;;;42.88;14.48;;;;;;;;;;5032861;28;20497;-46
2021/09/18 05:31:52;;;;;;;45.60;13.75;;;;;;;;;;5031689;28;20029;-43
2021/09/18 05:34:19;;;;;;;45.38;12.88;;;;;;;;;;5033141;28;20028;-44
2021/09/18 05:36:46;;;;;;;46.80;13.48;;;;;;;;;;5032989;28;20047;-46
2021/09/18 05:39:13;;;;;;;45.30;13.80;;;;;;;;;;5032913;28;20009;-44
2021/09/18 05:41:40;;;;;;;44.40;12.77;;;;;;;;;;5032865;28;20056;-46
2021/09/18 05:44:07;;;;;;;43.97;12.45;;;;;;;;;;5032872;28;20067;-46
2021/09/18 05:46:34;;;;;;;51.97;13.73;;;;;;;;;;5032787;28;20021;-45
2021/09/18 05:49:01;;;;;;;47.60;12.98;;;;;;;;;;5032696;28;20037;-46
2021/09/18 05:51:29;;;;;;;39.95;12.65;;;;;;;;;;5032645;28;20045;-45
2021/09/18 05:53:56;;;;;;;53.88;13.20;;;;;;;;;;5032398;28;20444;-42
2021/09/18 05:56:24;;;;;;;40.20;12.13;;;;;;;;;;5032760;28;20037;-42
2021/09/18 05:58:51;;;;;;;49.58;12.63;;;;;;;;;;5032592;28;20473;-46
2021/09/18 06:01:18;;;;;;;40.08;13.20;;;;;;;;;;5031965;28;20049;-46
2021/09/18 06:03:45;;;;;;;46.50;11.88;;;;;;;;;;5032561;28;20021;-45
2021/09/18 06:06:12;;;;;;;41.03;12.50;;;;;;;;;;5032481;28;20068;-43
2021/09/18 06:08:39;;;;;;;42.47;13.20;;;;;;;;;;5030990;28;20112;-45
2021/09/18 06:11:06;;;;;;;37.80;12.27;;;;;;;;;;5032434;28;20056;-44
2021/09/18 06:13:33;;;;;;;52.17;12.63;;;;;;;;;;5031924;28;20109;-43
2021/09/18 06:16:00;;;;;;;39.42;11.88;;;;;;;;;;5032393;28;20030;-46
2021/09/18 06:18:28;;;;;;;44.42;11.60;;;;;;;;;;5032353;28;20366;-46
2021/09/18 06:20:56;;;;;;;32.92;10.95;;;;;;;;;;5032262;28;20032;-44
2021/09/18 06:23:23;;;;;;;40.50;11.88;;;;;;;;;;5032296;28;20025;-44
2021/09/18 06:25:50;;;;;;;37.08;11.18;;;;;;;;;;5032195;28;20064;-44
2021/09/18 06:28:18;;;;;;;37.05;10.40;;;;;;;;;;5032244;28;20060;-44
2021/09/18 06:30:45;;;;;;;38.60;11.73;;;;;;;;;;5032056;28;20057;-44
2021/09/18 06:33:12;;;;;;;41.75;11.20;;;;;;;;;;5032345;28;20137;-44
2021/09/18 06:35:39;;;;;;;40.60;11.68;;;;;;;;;;5032129;28;20021;-44
2021/09/18 06:38:07;;;;;;;34.45;10.93;;;;;;;;;;5032103;28;20089;-45
2021/09/18 06:40:34;;;;;;;30.98;9.95;;;;;;;;;;5032244;28;20025;-44
2021/09/18 06:43:01;;;;;;;40.47;11.32;;;;;;;;;;5032028;28;20373;-44
2021/09/18 06:45:28;;;;;;;31.60;9.98;;;;;;;;;;5031981;28;20022;-45
2021/09/18 06:47:56;;;;;;;42.60;11.07;;;;;;;;;;5022092;28;20042;-44
2021/09/18 06:50:23;;;;;;;34.63;10.07;;;;;;;;;;4993129;28;20033;-46
2021/09/18 06:52:50;;;;;;;38.20;11.20;;;;;;;;;;4991790;28;20490;-44
2021/09/18 06:55:17;;;;;;;30.27;9.65;;;;;;;;;;4992650;28;20125;-44
2021/09/18 06:57:44;;;;;;;30.73;10.07;;;;;;;;;;4992661;28;20110;-46
2021/09/18 07:00:11;;;;;;;33.13;9.85;;;;;;;;;;4992625;28;20581;-44
2021/09/18 07:02:38;;;;;;;28.77;9.35;;;;;;;;;;4992450;28;20077;-44
2021/09/18 07:05:06;;;;;;;35.67;10.02;;;;;;;;;;4992627;28;20494;-44
2021/09/18 07:07:33;;;;;;;31.48;10.30;;;;;;;;;;4992230;28;20137;-46
2021/09/18 07:10:00;;;;;;;32.70;10.50;;;;;;;;;;4992448;28;20038;-45
2021/09/18 07:12:27;;;;;;;35.03;9.82;;;;;;;;;;4993291;28;20073;-45
2021/09/18 07:14:54;;;;;;;32.38;9.55;;;;;;;;;;4995997;28;20026;-46
2021/09/18 07:17:21;;;;;;;34.58;9.93;;;;;;;;;;4995159;28;20129;-46
2021/09/18 07:19:48;;;;;;;31.42;9.07;;;;;;;;;;4996113;28;20069;-45
2021/09/18 07:22:15;;;;;;;28.48;9.32;;;;;;;;;;4995781;28;20483;-43
2021/09/18 07:24:42;;;;;;;31.02;10.77;;;;;;;;;;4996368;28;20433;-44
2021/09/18 07:27:09;;;;;;;29.85;9.02;;;;;;;;;;4996083;28;20027;-45
2021/09/18 07:29:36;;;;;;;33.38;9.20;;;;;;;;;;4995822;28;20030;-46
2021/09/18 07:32:03;;;;;;;28.45;8.63;;;;;;;;;;4994806;28;20053;-47
2021/09/18 07:34:30;;;;;;;28.65;8.43;;;;;;;;;;4995886;28;20386;-46
2021/09/18 07:36:57;;;;;;;25.92;9.07;;;;;;;;;;4995473;28;20049;-46
2021/09/18 07:39:26;;;;;;;27.52;8.85;;;;;;;;;;4996022;28;20046;-46
2021/09/18 07:41:53;;;;;;;25.73;8.90;;;;;;;;;;4995675;28;20026;-43
2021/09/18 07:44:20;;;;;;;30.77;9.25;;;;;;;;;;4995773;28;20023;-46
2021/09/18 07:46:47;;;;;;;28.70;8.45;;;;;;;;;;4995628;28;20022;-45
2021/09/18 07:49:14;;;;;;;25.55;8.93;;;;;;;;;;4995754;28;20038;-46
2021/09/18 07:51:41;;;;;;;26.55;8.30;;;;;;;;;;4995108;28;20053;-45
2021/09/18 07:54:08;;;;;;;26.75;8.32;;;;;;;;;;4995336;28;20566;-46
2021/09/18 07:56:36;;;;;;;31.27;8.93;;;;;;;;;;4995363;28;20057;-46
2021/09/18 07:59:03;;;;;;;27.77;8.35;;;;;;;;;;4995313;28;20025;-44
2021/09/18 08:01:32;;;;;;;29.27;8.27;;;;;;;;;;4995329;28;20023;-44
2021/09/18 08:04:02;;;;;;;23.58;7.65;;;;;;;;;;4995464;28;20026;-46
2021/09/18 08:06:29;;;;;;;25.60;8.45;;;;;;;;;;4995391;28;20011;-45
2021/09/18 08:08:56;;;;;;;27.13;8.15;;;;;;;;;;4995234;28;20038;-46
2021/09/18 08:11:24;;;;;;;22.42;7.60;;;;;;;;;;4995140;28;20026;-42
2021/09/18 08:13:51;;;;;;;24.35;8.18;;;;;;;;;;4995223;28;20105;-46
2021/09/18 08:16:19;;;;;;;24.83;7.70;;;;;;;;;;4995019;28;20418;-44
2021/09/18 08:18:46;;;;;;;26.20;8.32;;;;;;;;;;4995085;28;20077;-44
2021/09/18 08:21:13;;;;;;;22.90;7.65;;;;;;;;;;4993755;28;20110;-46
2021/09/18 08:23:45;;;;;;;21.35;7.50;;;;;;;;;;4994636;28;20037;-42
2021/09/18 08:26:12;;;;;;;23.85;8.07;;;;;;;;;;4994980;28;20405;-46
2021/09/18 08:28:39;;;;;;;25.35;8.50;;;;;;;;;;4994999;28;20100;-46
2021/09/18 08:31:06;;;;;;;21.75;7.57;;;;;;;;;;4994839;28;20022;-45
2021/09/18 08:33:35;;;;;;;24.83;7.55;;;;;;;;;;4994471;28;20033;-43
2021/09/18 08:36:02;;;;;;;24.27;7.72;;;;;;;;;;4994976;28;20030;-48
2021/09/18 08:38:29;;;;;;;22.75;6.90;;;;;;;;;;4994776;28;20018;-46
2021/09/18 08:40:56;;;;;;;21.70;7.20;;;;;;;;;;4994614;28;20029;-46
2021/09/18 08:43:23;;;;;;;20.58;6.70;;;;;;;;;;4994839;28;20010;-41
2021/09/18 08:45:50;;;;;;;21.00;6.78;;;;;;;;;;4994572;28;20023;-46
2021/09/18 08:48:17;;;;;;;27.10;7.85;;;;;;;;;;4994363;28;20030;-44
2021/09/18 08:50:45;;;;;;;17.00;6.78;;;;;;;;;;4994526;28;20030;-47
2021/09/18 08:53:12;;;;;;;21.73;6.28;;;;;;;;;;4994237;28;20513;-46
2021/09/18 08:55:39;;;;;;;20.92;7.03;;;;;;;;;;4994447;28;20026;-46
2021/09/18 08:58:06;;;;;;;17.45;7.07;;;;;;;;;;4994504;28;20073;-45
2021/09/18 09:00:33;;;;;;;25.15;6.68;;;;;;;;;;4994207;28;20023;-48
2021/09/18 09:03:02;;;;;;;17.20;6.88;;;;;;;;;;4994126;28;20077;-46
2021/09/18 09:05:30;;;;;;;17.52;6.32;;;;;;;;;;4994401;28;20501;-46
2021/09/18 09:08:08;;;;;;;20.75;7.50;;;;;;;;;;4994281;28;20445;-45
2021/09/18 09:10:35;;;;;;;20.63;6.38;;;;;;;;;;4994213;28;20073;-45
2021/09/18 09:13:10;;;;;;;20.20;6.57;;;;;;;;;;4992735;28;20076;-46
2021/09/18 09:15:37;;;;;;;15.40;6.45;;;;;;;;;;4993947;28;20023;-46
2021/09/18 09:18:24;;;;;;;18.30;6.22;;;;;;;;;;4994026;28;20053;-46
2021/09/18 09:20:52;;;;;;;21.42;6.68;;;;;;;;;;4993950;28;20553;-46
2021/09/18 09:23:23;;;;;;;16.92;6.18;;;;;;;;;;4993956;28;20066;-47
2021/09/18 09:25:53;;;;;;;16.75;6.28;;;;;;;;;;4993854;28;20060;-46
2021/09/18 09:28:33;;;;;;;21.25;6.72;;;;;;;;;;4993683;28;20126;-42
2021/09/18 09:31:16;;;;;;;19.48;6.15;;;;;;;;;;4993691;28;20033;-46
2021/09/18 09:34:01;;;;;;;23.35;6.00;;;;;;;;;;4994039;28;20036;-47
2021/09/18 09:36:30;;;;;;;17.92;6.07;;;;;;;;;;4993127;28;20037;-46
2021/09/18 09:38:58;;;;;;;16.17;6.70;;;;;;;;;;4993438;28;20065;-44
2021/09/18 09:41:31;;;;;;;21.88;6.03;;;;;;;;;;4993478;28;20025;-43
2021/09/18 09:43:59;;;;;;;14.35;5.70;;;;;;;;;;4993727;28;20088;-47
2021/09/18 09:46:26;;;;;;;18.20;5.63;;;;;;;;;;4993586;28;20019;-44
2021/09/18 09:49:22;;;;;;;15.68;5.47;;;;;;;;;;4993396;28;20422;-46
2021/09/18 09:51:49;;;;;;;17.38;6.03;;;;;;;;;;4983468;28;20387;-47
2021/09/18 09:54:21;;;;;;;15.93;5.78;;;;;;;;;;4993406;28;20438;-45
2021/09/18 09:56:48;;;;;;;15.73;5.80;;;;;;;;;;4993426;28;20034;-47
2021/09/18 09:59:35;;;;;;;13.38;5.22;;;;;;;;;;4993425;28;20478;-46
2021/09/18 10:02:04;;;;;;;13.13;4.95;;;;;;;;;;4993223;28;20050;-47
2021/09/18 10:04:31;;;;;;;18.05;5.68;;;;;;;;;;4993234;28;20387;-47
2021/09/18 10:06:58;;;;;;;14.27;5.72;;;;;;;;;;4993144;28;20427;-43
2021/09/18 10:09:25;;;;;;;17.42;5.28;;;;;;;;;;4993278;28;20096;-47
2021/09/18 10:11:56;;;;;;;14.18;5.05;;;;;;;;;;4993080;28;20025;-41
2021/09/18 10:14:25;;;;;;;17.67;5.50;;;;;;;;;;4992961;28;20030;-44
2021/09/18 10:16:56;;;;;;;16.30;5.45;;;;;;;;;;4993094;28;20022;-46
2021/09/18 10:19:53;;;;;;;18.02;5.00;;;;;;;;;;4992914;28;20034;-44
2021/09/18 10:25:15;;;;;;;17.80;5.10;;;;;;;;;;4993254;28;20037;-45
2021/09/18 10:27:57;;;;;;;17.95;5.70;;;;;;;;;;4992921;28;20030;-46
2021/09/18 10:30:32;;;;;;;13.95;4.93;;;;;;;;;;4992981;28;20030;-44
2021/09/18 10:32:59;;;;;;;14.40;4.80;;;;;;;;;;4992858;28;20028;-45
2021/09/18 10:35:26;;;;;;;17.77;4.93;;;;;;;;;;4992712;28;20041;-45
2021/09/18 10:37:53;;;;;;;14.55;5.88;;;;;;;;;;4992890;28;20046;-45
2021/09/18 10:40:21;;;;;;;10.98;4.53;;;;;;;;;;4992713;28;20026;-46
2021/09/18 10:42:48;;;;;;;14.50;5.25;;;;;;;;;;4992541;28;20116;-44
2021/09/18 10:45:17;;;;;;;14.27;5.00;;;;;;;;;;4992883;28;20030;-46
2021/09/18 10:47:52;;;;;;;16.67;4.22;;;;;;;;;;4995363;28;20092;-43
2021/09/18 10:50:24;;;;;;;14.75;4.60;;;;;;;;;;4996641;28;20034;-44
2021/09/18 10:53:10;;;;;;;14.02;4.60;;;;;;;;;;4996235;28;20522;-44
2021/09/18 10:55:56;;;;;;;15.00;4.25;;;;;;;;;;4996689;28;20021;-45
2021/09/18 10:58:24;;;;;;;14.15;4.70;;;;;;;;;;4996447;28;20517;-46
2021/09/18 11:00:56;;;;;;;12.07;4.57;;;;;;;;;;4996647;28;20034;-43
2021/09/18 11:03:36;;;;;;;11.55;5.13;;;;;;;;;;4996495;28;20026;-46
2021/09/18 11:06:04;;;;;;;14.10;4.57;;;;;;;;;;4996505;28;20034;-44
2021/09/18 11:08:34;;;;;;;9.18;4.13;;;;;;;;;;4996289;28;20022;-44
2021/09/18 11:11:12;;;;;;;11.18;4.82;;;;;;;;;;4996563;28;20172;-42
2021/09/18 11:13:40;;;;;;;11.15;4.07;;;;;;;;;;5012017;28;20026;-45
2021/09/18 11:16:18;;;;;;;12.13;4.10;;;;;;;;;;5015411;28;20026;-47
2021/09/18 11:18:46;;;;;;;15.95;4.30;;;;;;;;;;5015771;28;20045;-43
2021/09/18 11:21:18;;;;;;;15.32;4.22;;;;;;;;;;5014592;28;20477;-43
2021/09/18 11:23:45;;;;;;;12.25;4.70;;;;;;;;;;5014606;28;20385;-44
2021/09/18 11:26:33;;;;;;;14.77;4.53;;;;;;;;;;5015746;28;20026;-47
2021/09/18 11:29:09;;;;;;;15.63;4.00;;;;;;;;;;5015408;28;20041;-47
2021/09/18 11:31:36;;;;;;;10.63;4.13;;;;;;;;;;5015633;28;20050;-46
2021/09/18 11:34:04;;;;;;;10.45;3.88;;;;;;;;;;5015725;28;20072;-44
2021/09/18 11:36:31;;;;;;;12.15;4.57;;;;;;;;;;5015272;28;20029;-44
2021/09/18 11:38:58;;;;;;;13.05;4.30;;;;;;;;;;5015522;28;20041;-46
2021/09/18 11:41:26;;;;;;;9.35;3.95;;;;;;;;;;5015506;28;20026;-46
2021/09/18 11:43:53;;;;;;;12.27;4.30;;;;;;;;;;5015665;28;20018;-44
2021/09/18 11:46:26;;;;;;;10.95;4.30;;;;;;;;;;5014771;28;20024;-45
2021/09/18 11:49:03;;;;;;;15.18;4.72;;;;;;;;;;5014912;28;20030;-43
2021/09/18 11:51:30;;;;;;;12.63;4.82;;;;;;;;;;5011714;28;20026;-45
2021/09/18 11:54:07;;;;;;;14.73;4.10;;;;;;;;;;5011372;28;20072;-46
2021/09/18 11:56:34;;;;;;;13.73;4.60;;;;;;;;;;5013415;28;20503;-43
2021/09/18 11:59:12;;;;;;;12.32;4.50;;;;;;;;;;5009115;28;20029;-43
2021/09/18 12:01:39;;;;;;;13.00;4.13;;;;;;;;;;5008840;28;20524;-45
2021/09/18 12:04:06;;;;;;;16.38;4.28;;;;;;;;;;5013293;28;20025;-46
2021/09/18 12:06:33;;;;;;;15.48;4.32;;;;;;;;;;5013123;28;20021;-44
2021/09/18 12:09:00;;;;;;;12.75;4.47;;;;;;;;;;5010469;28;20068;-45
2021/09/18 12:11:28;;;;;;;15.77;3.95;;;;;;;;;;5012559;28;20030;-41
2021/09/18 12:13:55;;;;;;;17.40;4.15;;;;;;;;;;5014244;28;20477;-42
2021/09/18 12:16:24;;;;;;;22.20;4.32;;;;;;;;;;5013101;28;20036;-40
2021/09/18 12:18:53;;;;;;;20.50;5.45;;;;;;;;;;5013527;28;20076;-44
2021/09/18 12:21:22;;;;;;;14.73;4.32;;;;;;;;;;5010072;28;20022;-44
2021/09/18 12:23:51;;;;;;;13.70;4.32;;;;;;;;;;5013862;28;20024;-45
2021/09/18 12:26:18;;;;;;;21.25;4.40;;;;;;;;;;5013546;28;20076;-45
2021/09/18 12:28:45;;;;;;;18.00;5.10;;;;;;;;;;5013442;28;20033;-43
2021/09/18 12:31:19;;;;;;;19.85;4.18;;;;;;;;;;5008361;28;20018;-47
2021/09/18 12:33:47;;;;;;;16.60;4.00;;;;;;;;;;5013819;28;20018;-43
2021/09/18 12:36:23;;;;;;;17.58;4.13;;;;;;;;;;5013373;28;20359;-43
2021/09/18 12:38:51;;;;;;;19.08;4.22;;;;;;;;;;5013982;28;20029;-44
2021/09/18 12:41:22;;;;;;;13.95;4.00;;;;;;;;;;5008310;28;20018;-43
2021/09/18 12:44:00;;;;;;;22.90;5.63;;;;;;;;;;5010159;28;20125;-45
2021/09/18 12:46:28;;;;;;;18.20;4.43;;;;;;;;;;4998813;28;20053;-43
2021/09/18 12:48:59;;;;;;;29.48;4.57;;;;;;;;;;5005025;28;20026;-45
2021/09/18 12:51:26;;;;;;;10.90;4.10;;;;;;;;;;4995038;28;20066;-43
2021/09/18 12:53:55;;;;;;;18.67;5.30;;;;;;;;;;4994260;28;20046;-43
2021/09/18 12:56:25;;;;;;;21.48;4.55;;;;;;;;;;4995994;28;20050;-44
2021/09/18 12:59:04;;;;;;;15.48;3.85;;;;;;;;;;4996045;28;20022;-44
2021/09/18 13:01:38;;;;;;;16.70;4.90;;;;;;;;;;4995280;28;20014;-44
2021/09/18 13:04:07;;;;;;;13.30;4.25;;;;;;;;;;4994031;28;20030;-42
2021/09/18 13:06:35;;;;;;;13.02;4.53;;;;;;;;;;5002152;28;20026;-45
2021/09/18 13:09:04;;;;;;;18.92;4.45;;;;;;;;;;4990895;28;20042;-44
2021/09/18 13:11:37;;;;;;;16.60;4.05;;;;;;;;;;4996452;28;20037;-45
2021/09/18 13:14:12;;;;;;;14.38;3.75;;;;;;;;;;5001380;28;20465;-43
2021/09/18 13:16:39;;;;;;;19.58;4.00;;;;;;;;;;5004761;28;20029;-44
2021/09/18 13:19:07;;;;;;;21.05;4.72;;;;;;;;;;5016632;28;20036;-46
2021/09/18 13:21:34;;;;;;;18.63;4.20;;;;;;;;;;4994730;28;20030;-43
2021/09/18 13:24:01;;;;;;;15.20;4.35;;;;;;;;;;5003085;28;20033;-45
2021/09/18 13:26:29;;;;;;;15.77;3.97;;;;;;;;;;5001544;28;20106;-43
2021/09/18 13:28:56;;;;;;;17.75;4.53;;;;;;;;;;4992803;28;20142;-45
2021/09/18 13:31:23;;;;;;;21.40;4.57;;;;;;;;;;5000908;28;20073;-41
2021/09/18 13:33:50;;;;;;;20.38;5.20;;;;;;;;;;5009187;28;20041;-43
2021/09/18 13:36:17;;;;;;;18.45;4.65;;;;;;;;;;5003961;28;20030;-42
2021/09/18 13:38:44;;;;;;;16.10;4.50;;;;;;;;;;5008728;28;20054;-44
2021/09/18 13:41:11;;;;;;;18.95;4.38;;;;;;;;;;5006676;28;20014;-43
2021/09/18 13:43:38;;;;;;;20.63;5.00;;;;;;;;;;4997106;28;20505;-43
2021/09/18 13:46:05;;;;;;;18.23;4.70;;;;;;;;;;5006062;28;20106;-43
2021/09/18 13:48:32;;;;;;;19.95;4.53;;;;;;;;;;5008164;28;20034;-46
2021/09/18 13:51:01;;;;;;;21.20;5.00;;;;;;;;;;5005160;28;20025;-44
2021/09/18 13:53:29;;;;;;;18.35;4.50;;;;;;;;;;5004816;28;20057;-44
2021/09/18 13:55:56;;;;;;;24.55;4.88;;;;;;;;;;5008823;28;20029;-43
2021/09/18 13:58:23;;;;;;;15.50;4.50;;;;;;;;;;5001376;28;20065;-44
2021/09/18 14:00:50;;;;;;;20.77;5.90;;;;;;;;;;5004583;28;20436;-44
2021/09/18 14:03:17;;;;;;;23.63;5.40;;;;;;;;;;5004703;28;20436;-45
2021/09/18 14:05:44;;;;;;;37.30;6.13;;;;;;;;;;5005282;28;20026;-45
2021/09/18 14:08:11;;;;;;;31.50;5.57;;;;;;;;;;5006247;28;20064;-44
2021/09/18 14:10:38;;;;;;;19.90;5.75;;;;;;;;;;5004151;28;20026;-46
2021/09/18 14:13:05;;;;;;;23.75;4.75;;;;;;;;;;5001726;28;20475;-45
2021/09/18 14:15:32;;;;;;;29.50;5.47;;;;;;;;;;5002598;28;20034;-44
2021/09/18 14:18:01;;;;;;;21.92;5.10;;;;;;;;;;4998728;28;20034;-45
2021/09/18 14:20:28;;;;;;;21.77;4.40;;;;;;;;;;5007851;28;20101;-45
2021/09/18 14:22:55;;;;;;;17.73;4.82;;;;;;;;;;5000220;28;20033;-46
2021/09/18 14:25:23;;;;;;;23.10;4.72;;;;;;;;;;5007065;28;20071;-46
2021/09/18 14:27:50;;;;;;;36.80;5.85;;;;;;;;;;4996998;28;20022;-44
2021/09/18 14:30:17;;;;;;;33.05;6.20;;;;;;;;;;4999737;28;20486;-45
2021/09/18 14:32:44;;;;;;;26.77;5.72;;;;;;;;;;4997285;28;20445;-45